TimeCDT,TemperatureF,Dew PointF,Humidity,Sea Level PressureIn,VisibilityMPH,Wind Direction,Wind SpeedMPH,Gust SpeedMPH,PrecipitationIn,Events,Conditions,WindDirDegrees,DateUTC
12:53 AM,75.0,48.0,38,30.13,10.0,South,6.9,-,N/A,,Clear,190,2013-05-14 05:53:00
1:53 AM,73.0,51.1,46,30.12,10.0,South,8.1,-,N/A,,Clear,190,2013-05-14 06:53:00
2:53 AM,70.0,52.0,53,30.11,10.0,SSW,9.2,-,N/A,,Clear,210,2013-05-14 07:53:00
3:53 AM,70.0,52.0,53,30.10,10.0,SSW,8.1,-,N/A,,Clear,210,2013-05-14 08:53:00
4:53 AM,70.0,54.0,57,30.10,10.0,SSW,8.1,-,N/A,,Clear,200,2013-05-14 09:53:00
5:53 AM,69.1,55.0,61,30.10,10.0,SSW,5.8,-,N/A,,Partly Cloudy,200,2013-05-14 10:53:00
6:53 AM,66.0,55.0,68,30.12,10.0,South,5.8,-,N/A,,Scattered Clouds,180,2013-05-14 11:53:00
7:53 AM,68.0,55.9,65,30.13,10.0,South,4.6,-,N/A,,Mostly Cloudy,190,2013-05-14 12:53:00
8:53 AM,72.0,55.9,57,30.14,10.0,SW,11.5,-,N/A,,Scattered Clouds,220,2013-05-14 13:53:00
9:53 AM,73.9,55.9,53,30.15,10.0,SSW,10.4,-,N/A,,Scattered Clouds,210,2013-05-14 14:53:00
10:53 AM,79.0,57.0,47,30.14,10.0,SSW,9.2,16.1,N/A,,Partly Cloudy,200,2013-05-14 15:53:00
11:53 AM,82.9,57.0,41,30.13,10.0,SSW,12.7,17.3,N/A,,Partly Cloudy,210,2013-05-14 16:53:00
12:53 PM,84.9,55.9,37,30.10,10.0,SSE,6.9,-,N/A,,Partly Cloudy,160,2013-05-14 17:53:00
1:53 PM,87.1,54.0,32,30.07,10.0,South,15.0,21.9,N/A,,Partly Cloudy,170,2013-05-14 18:53:00
2:53 PM,88.0,54.0,31,30.05,10.0,South,17.3,25.3,N/A,,Partly Cloudy,180,2013-05-14 19:53:00
3:53 PM,88.0,50.0,27,30.03,10.0,South,16.1,28.8,N/A,,Partly Cloudy,180,2013-05-14 20:53:00
4:53 PM,87.1,50.0,28,30.01,10.0,SSW,12.7,24.2,N/A,,Clear,200,2013-05-14 21:53:00
5:53 PM,87.1,50.0,28,29.98,10.0,South,17.3,28.8,N/A,,Clear,190,2013-05-14 22:53:00
6:53 PM,84.9,51.1,31,29.97,10.0,South,21.9,27.6,N/A,,Clear,170,2013-05-14 23:53:00
7:53 PM,82.9,51.1,33,29.97,10.0,South,18.4,-,N/A,,Clear,170,2013-05-15 00:53:00
8:53 PM,81.0,54.0,39,29.98,10.0,South,12.7,-,N/A,,Clear,170,2013-05-15 01:53:00
9:53 PM,79.0,57.0,47,29.99,10.0,SSE,13.8,-,N/A,,Clear,160,2013-05-15 02:53:00
10:53 PM,77.0,57.9,52,30.01,10.0,South,15.0,-,N/A,,Clear,170,2013-05-15 03:53:00
11:53 PM,75.9,59.0,56,30.02,10.0,South,9.2,-,N/A,,Scattered Clouds,180,2013-05-15 04:53:00